Time;durP1;ratioP1;P1;durP2;ratioP2;P2;SDS_P1;SDS_P2;PMS_P1;PMS_P2;Temp;Humidity;BMP_temperature;BMP_pressure;BME280_temperature;BME280_humidity;BME280_pressure;Samples;Min_cycle;Max_cycle;Signal;HPM_P1;HPM_P2
2023/12/07 00:00:16;;;;;;;;;;;0.60;99.90;;;;;;8443453;28;19937;-72
2023/12/07 00:04:18;;;;;;;;;;;0.60;99.90;;;;;;8448235;28;20321;-73
2023/12/07 00:08:20;;;;;;;;;;;0.60;99.90;;;;;;8438367;28;19924;-72
2023/12/07 00:12:21;;;;;;;;;;;0.60;99.90;;;;;;8439541;28;19931;-72
2023/12/07 00:16:23;;;;;;;;;;;0.60;99.90;;;;;;8440623;28;19924;-72
2023/12/07 00:20:26;;;;;;;;;;;0.60;99.90;;;;;;8436133;28;19945;-73
2023/12/07 00:24:27;;;;;;;;;;;0.70;99.90;;;;;;8456992;28;19925;-72
2023/12/07 00:28:29;;;;;;;;;;;0.70;99.90;;;;;;8442435;28;19985;-72
2023/12/07 00:32:31;;;;;;;;;;;0.70;99.90;;;;;;8446630;28;19924;-72
2023/12/07 00:36:33;;;;;;;;;;;0.70;99.90;;;;;;8462318;28;19991;-72
2023/12/07 00:40:37;;;;;;;;;;;0.70;99.90;;;;;;8442103;28;19931;-73
2023/12/07 00:59:42;;;;;;;;;;;0.40;99.90;;;;;;8442300;28;19967;-73
2023/12/07 01:03:44;;;;;;;;;;;0.30;99.90;;;;;;8443759;28;19932;-73
2023/12/07 01:07:46;;;;;;;;;;;0.30;99.90;;;;;;8438117;28;19924;-73
2023/12/07 01:11:48;;;;;;;;;;;0.40;99.90;;;;;;8446459;28;19938;-72
2023/12/07 01:15:49;;;;;;;;;;;0.40;99.90;;;;;;8440419;28;19977;-72
2023/12/07 01:19:51;;;;;;;;;;;0.40;99.90;;;;;;8444251;28;19931;-72
2023/12/07 01:23:53;;;;;;;;;;;0.40;99.90;;;;;;8429431;28;19931;-73
2023/12/07 01:28:03;;;;;;;;;;;0.50;99.90;;;;;;8438120;28;19924;-72
2023/12/07 01:32:05;;;;;;;;;;;0.50;99.90;;;;;;8436881;28;20326;-72
2023/12/07 01:36:07;;;;;;;;;;;0.50;99.90;;;;;;8440869;28;19962;-73
2023/12/07 01:40:10;;;;;;;;;;;0.50;99.90;;;;;;8442388;28;20376;-73
2023/12/07 01:44:12;;;;;;;;;;;0.50;99.90;;;;;;8449287;28;19977;-72
2023/12/07 01:48:13;;;;;;;;;;;0.50;99.90;;;;;;8436698;28;20034;-73
2023/12/07 01:52:15;;;;;;;;;;;0.40;99.90;;;;;;8450852;28;20028;-72
2023/12/07 01:56:17;;;;;;;;;;;0.40;99.90;;;;;;8444177;28;19927;-72
2023/12/07 02:00:19;;;;;;;;;;;0.30;99.90;;;;;;8437463;28;19964;-73
2023/12/07 02:04:21;;;;;;;;;;;0.30;99.90;;;;;;8440954;28;19939;-73
2023/12/07 02:08:22;;;;;;;;;;;0.20;99.90;;;;;;8442791;28;19934;-73
2023/12/07 02:12:24;;;;;;;;;;;0.20;99.90;;;;;;8442526;28;19923;-73
2023/12/07 02:16:49;;;;;;;;;;;0.20;99.90;;;;;;8434037;28;20284;-73
2023/12/07 02:21:04;;;;;;;;;;;0.20;99.90;;;;;;8430233;28;19963;-73
2023/12/07 02:25:14;;;;;;;;;;;0.10;99.90;;;;;;8435335;28;20026;-73
2023/12/07 02:29:16;;;;;;;;;;;0.10;99.90;;;;;;8438996;28;20328;-72
2023/12/07 02:33:17;;;;;;;;;;;0.10;99.90;;;;;;8434437;28;19924;-72
2023/12/07 02:37:20;;;;;;;;;;;0.10;99.90;;;;;;8447938;28;19924;-72
2023/12/07 02:41:22;;;;;;;;;;;0.10;99.90;;;;;;8447764;28;19924;-72
2023/12/07 02:45:25;;;;;;;;;;;0.00;99.90;;;;;;8436676;28;19923;-72
2023/12/07 02:49:27;;;;;;;;;;;0.00;99.90;;;;;;8446821;28;19924;-72
2023/12/07 02:53:29;;;;;;;;;;;0.00;99.90;;;;;;8432040;28;19928;-72
2023/12/07 02:57:30;;;;;;;;;;;0.00;99.90;;;;;;8436608;28;19930;-73
2023/12/07 03:01:32;;;;;;;;;;;0.00;99.90;;;;;;8442544;28;19924;-72
2023/12/07 03:05:33;;;;;;;;;;;0.00;99.90;;;;;;8441360;28;19979;-72
2023/12/07 03:09:35;;;;;;;;;;;0.00;99.90;;;;;;8442622;28;20359;-72
2023/12/07 03:13:37;;;;;;;;;;;0.00;99.90;;;;;;8448987;28;19924;-72
2023/12/07 03:17:39;;;;;;;;;;;0.00;99.90;;;;;;8420971;28;19962;-72
2023/12/07 03:21:42;;;;;;;;;;;0.00;99.90;;;;;;8434219;28;19928;-73
2023/12/07 03:25:44;;;;;;;;;;;0.00;99.90;;;;;;8443809;28;19923;-73
2023/12/07 03:29:46;;;;;;;;;;;0.10;99.90;;;;;;8439630;28;19938;-73
2023/12/07 03:33:47;;;;;;;;;;;0.00;99.90;;;;;;8440524;28;20414;-72
2023/12/07 03:37:49;;;;;;;;;;;0.00;99.90;;;;;;8437086;28;19932;-73
2023/12/07 03:41:51;;;;;;;;;;;0.00;99.90;;;;;;8428410;28;19924;-73
2023/12/07 03:45:52;;;;;;;;;;;0.00;99.90;;;;;;8445278;28;19924;-73
2023/12/07 03:49:54;;;;;;;;;;;0.00;99.90;;;;;;8445714;28;19924;-72
2023/12/07 03:53:55;;;;;;;;;;;0.00;99.90;;;;;;8451652;28;19931;-72
2023/12/07 03:57:57;;;;;;;;;;;0.00;99.90;;;;;;8441466;28;19939;-72
2023/12/07 04:01:59;;;;;;;;;;;-0.10;99.90;;;;;;8446287;28;19984;-72
2023/12/07 04:06:00;;;;;;;;;;;0.00;99.90;;;;;;8439209;28;19927;-72
2023/12/07 04:10:05;;;;;;;;;;;0.00;99.90;;;;;;8436192;28;19975;-72
2023/12/07 04:14:07;;;;;;;;;;;0.00;99.90;;;;;;8448074;28;19924;-73
2023/12/07 04:18:08;;;;;;;;;;;0.00;99.90;;;;;;8423376;28;19932;-73
2023/12/07 04:22:10;;;;;;;;;;;0.00;99.90;;;;;;8435124;28;19931;-73
2023/12/07 04:26:12;;;;;;;;;;;0.10;99.90;;;;;;8451259;28;19923;-72
2023/12/07 04:30:14;;;;;;;;;;;0.10;99.90;;;;;;8433141;28;19934;-72
2023/12/07 04:34:15;;;;;;;;;;;0.10;99.90;;;;;;8441251;28;19966;-72
2023/12/07 04:38:17;;;;;;;;;;;0.00;99.90;;;;;;8427068;28;19928;-72
2023/12/07 04:42:19;;;;;;;;;;;0.00;99.90;;;;;;8420301;28;19932;-72
2023/12/07 04:46:20;;;;;;;;;;;0.10;99.90;;;;;;8422916;28;20329;-72
2023/12/07 04:50:22;;;;;;;;;;;0.20;99.90;;;;;;8414240;28;20417;-73
2023/12/07 04:54:24;;;;;;;;;;;0.20;99.90;;;;;;8410492;28;19932;-72
2023/12/07 04:58:26;;;;;;;;;;;0.20;99.90;;;;;;8396786;28;19931;-72
2023/12/07 05:02:27;;;;;;;;;;;0.30;99.90;;;;;;8423422;28;19924;-73
2023/12/07 05:06:30;;;;;;;;;;;0.30;99.90;;;;;;8431601;28;19924;-72
2023/12/07 05:10:31;;;;;;;;;;;0.30;99.90;;;;;;8443524;28;20390;-72
2023/12/07 05:14:34;;;;;;;;;;;0.40;99.90;;;;;;8445328;28;19931;-73
2023/12/07 05:18:36;;;;;;;;;;;0.40;99.90;;;;;;8414928;28;19970;-73
2023/12/07 05:22:38;;;;;;;;;;;0.40;99.90;;;;;;8413702;28;20018;-73
2023/12/07 05:26:43;;;;;;;;;;;0.40;99.90;;;;;;8441479;28;19936;-73
2023/12/07 05:30:45;;;;;;;;;;;0.50;99.90;;;;;;8429558;28;19978;-72
2023/12/07 05:34:48;;;;;;;;;;;0.50;99.90;;;;;;8428586;28;20327;-72
2023/12/07 05:38:50;;;;;;;;;;;0.60;99.90;;;;;;8439955;28;19923;-73
2023/12/07 05:42:51;;;;;;;;;;;0.60;99.90;;;;;;8443820;28;19924;-72
2023/12/07 05:46:54;;;;;;;;;;;0.60;99.90;;;;;;8435494;28;20280;-72
2023/12/07 05:50:56;;;;;;;;;;;0.50;99.90;;;;;;8440986;28;19930;-72
2023/12/07 05:54:58;;;;;;;;;;;0.50;99.90;;;;;;8430796;28;20349;-73
2023/12/07 05:59:00;;;;;;;;;;;0.50;99.90;;;;;;8435962;28;19932;-72
2023/12/07 06:03:02;;;;;;;;;;;0.50;99.90;;;;;;8418439;28;19932;-73
2023/12/07 06:07:04;;;;;;;;;;;0.40;99.90;;;;;;8427408;28;20018;-72
2023/12/07 06:11:06;;;;;;;;;;;0.30;99.90;;;;;;8432787;28;20274;-73
2023/12/07 06:15:08;;;;;;;;;;;0.40;99.90;;;;;;8443762;28;20041;-72
2023/12/07 06:19:09;;;;;;;;;;;0.30;99.90;;;;;;8432894;28;20284;-73
2023/12/07 06:23:12;;;;;;;;;;;0.30;99.90;;;;;;8394225;28;20429;-72
2023/12/07 06:27:14;;;;;;;;;;;0.30;99.90;;;;;;8404809;28;19924;-72
2023/12/07 06:31:19;;;;;;;;;;;0.40;99.90;;;;;;8409671;28;19931;-73
2023/12/07 06:35:21;;;;;;;;;;;0.30;99.90;;;;;;8430030;28;19934;-72
2023/12/07 06:39:23;;;;;;;;;;;0.30;99.90;;;;;;8427537;28;19931;-72
2023/12/07 06:43:24;;;;;;;;;;;0.30;99.90;;;;;;8436774;28;19951;-73
2023/12/07 06:47:26;;;;;;;;;;;0.30;99.90;;;;;;8435382;28;20046;-72
2023/12/07 06:51:28;;;;;;;;;;;0.40;99.90;;;;;;8429933;28;20299;-72
2023/12/07 06:55:29;;;;;;;;;;;0.40;99.90;;;;;;8431212;28;21527;-73
2023/12/07 06:59:31;;;;;;;;;;;0.50;99.90;;;;;;8423568;28;19969;-73
2023/12/07 07:03:33;;;;;;;;;;;0.50;99.90;;;;;;8430457;28;19935;-72
2023/12/07 07:07:34;;;;;;;;;;;0.50;99.90;;;;;;8437550;28;19977;-72
2023/12/07 07:11:37;;;;;;;;;;;0.50;99.90;;;;;;8422286;28;19932;-72
2023/12/07 07:15:38;;;;;;;;;;;0.50;99.90;;;;;;8432379;28;19932;-72
2023/12/07 07:19:41;;;;;;;;;;;0.50;99.90;;;;;;8444420;28;19924;-73
2023/12/07 07:23:42;;;;;;;;;;;0.50;99.90;;;;;;8434076;28;19932;-73
2023/12/07 07:27:45;;;;;;;;;;;0.50;99.90;;;;;;8439733;28;19928;-73
2023/12/07 07:31:47;;;;;;;;;;;0.50;99.90;;;;;;8443045;28;19976;-72
2023/12/07 07:35:48;;;;;;;;;;;0.50;99.90;;;;;;8436660;28;19924;-72
2023/12/07 07:39:52;;;;;;;;;;;0.40;99.90;;;;;;8440775;28;20375;-72
2023/12/07 07:43:54;;;;;;;;;;;0.40;99.90;;;;;;8441504;28;19924;-72
2023/12/07 07:47:56;;;;;;;;;;;0.40;99.90;;;;;;8442022;28;19942;-72
2023/12/07 07:51:58;;;;;;;;;;;0.50;99.90;;;;;;8439800;28;19951;-72
2023/12/07 07:56:00;;;;;;;;;;;0.50;99.90;;;;;;8458815;28;20331;-72
2023/12/07 08:00:01;;;;;;;;;;;0.50;99.90;;;;;;8436280;28;19932;-73
2023/12/07 08:04:03;;;;;;;;;;;0.50;99.90;;;;;;8427420;28;19936;-73
2023/12/07 08:08:05;;;;;;;;;;;0.50;99.90;;;;;;8424452;28;19924;-73
2023/12/07 08:12:08;;;;;;;;;;;0.50;99.90;;;;;;8424599;28;19935;-72
2023/12/07 08:16:10;;;;;;;;;;;0.50;99.90;;;;;;8429298;28;19924;-73
2023/12/07 08:20:12;;;;;;;;;;;0.60;99.90;;;;;;8449249;28;19941;-72
2023/12/07 08:24:14;;;;;;;;;;;0.60;99.90;;;;;;8415334;28;19936;-73
2023/12/07 08:28:16;;;;;;;;;;;0.60;99.90;;;;;;8442461;28;19969;-73
2023/12/07 08:32:19;;;;;;;;;;;0.60;99.90;;;;;;8432171;28;19931;-73
2023/12/07 08:36:20;;;;;;;;;;;0.60;99.90;;;;;;8440124;28;19969;-72
2023/12/07 08:40:22;;;;;;;;;;;0.60;99.90;;;;;;8412945;28;21410;-72
2023/12/07 08:44:24;;;;;;;;;;;0.60;99.90;;;;;;8416968;28;19934;-72
2023/12/07 08:48:25;;;;;;;;;;;0.60;99.90;;;;;;8423464;28;19941;-73
2023/12/07 08:52:27;;;;;;;;;;;0.70;99.90;;;;;;8424934;28;20915;-72
2023/12/07 08:56:43;;;;;;;;;;;0.70;99.90;;;;;;8434756;28;19932;-73
2023/12/07 09:00:45;;;;;;;;;;;0.70;99.90;;;;;;8441257;28;19928;-73
2023/12/07 09:04:46;;;;;;;;;;;0.80;99.90;;;;;;8439001;28;19928;-73
2023/12/07 09:08:48;;;;;;;;;;;0.70;99.90;;;;;;8422671;28;19987;-73
2023/12/07 09:12:50;;;;;;;;;;;0.70;99.90;;;;;;8445353;28;19947;-73
2023/12/07 09:16:51;;;;;;;;;;;0.70;99.90;;;;;;8423941;28;19926;-73
2023/12/07 09:20:53;;;;;;;;;;;0.70;99.90;;;;;;8449522;28;19924;-73
2023/12/07 09:24:55;;;;;;;;;;;0.80;99.90;;;;;;8447895;28;19985;-73
2023/12/07 09:28:56;;;;;;;;;;;0.80;99.90;;;;;;8452115;28;19973;-73
2023/12/07 09:32:58;;;;;;;;;;;0.80;99.90;;;;;;8439058;28;19925;-72
2023/12/07 09:37:09;;;;;;;;;;;0.80;99.90;;;;;;8437291;28;20286;-72
2023/12/07 09:41:11;;;;;;;;;;;0.80;99.90;;;;;;8450783;28;20375;-72
2023/12/07 09:45:18;;;;;;;;;;;0.80;99.90;;;;;;8428935;28;20015;-73
2023/12/07 09:49:20;;;;;;;;;;;0.80;99.90;;;;;;8432695;28;20022;-72
2023/12/07 09:53:22;;;;;;;;;;;0.80;99.90;;;;;;8434199;28;19924;-72
2023/12/07 09:57:24;;;;;;;;;;;0.80;99.90;;;;;;8427771;28;19951;-73
2023/12/07 10:01:30;;;;;;;;;;;0.90;99.90;;;;;;8435480;28;19930;-72
2023/12/07 10:05:31;;;;;;;;;;;0.90;99.90;;;;;;8443525;28;19928;-73
2023/12/07 10:09:33;;;;;;;;;;;0.90;99.90;;;;;;8435214;28;19924;-73
2023/12/07 10:13:36;;;;;;;;;;;1.00;99.90;;;;;;8442416;28;19981;-73
2023/12/07 10:17:47;;;;;;;;;;;1.00;99.90;;;;;;8427650;28;19962;-73
2023/12/07 10:21:53;;;;;;;;;;;1.00;99.90;;;;;;8427057;28;19971;-73
2023/12/07 10:25:54;;;;;;;;;;;1.10;99.90;;;;;;8464479;27;19984;-73
2023/12/07 10:29:58;;;;;;;;;;;1.00;99.90;;;;;;8426321;28;19977;-73
2023/12/07 10:34:00;;;;;;;;;;;1.10;99.90;;;;;;8434741;28;19971;-73
2023/12/07 10:38:02;;;;;;;;;;;1.10;99.90;;;;;;8438832;28;19985;-74
2023/12/07 10:42:08;;;;;;;;;;;1.10;99.90;;;;;;8475186;27;19928;-72
2023/12/07 10:46:13;;;;;;;;;;;1.10;99.90;;;;;;8422636;28;20367;-73
2023/12/07 10:50:19;;;;;;;;;;;1.10;99.90;;;;;;8426734;28;20367;-73
2023/12/07 10:54:22;;;;;;;;;;;1.20;99.90;;;;;;8422000;28;20274;-72
2023/12/07 10:58:25;;;;;;;;;;;1.20;99.90;;;;;;8426258;28;19929;-73
2023/12/07 11:02:32;;;;;;;;;;;1.30;99.90;;;;;;8438693;28;19930;-72
2023/12/07 11:06:34;;;;;;;;;;;1.30;99.90;;;;;;8440589;28;19936;-72
2023/12/07 11:10:43;;;;;;;;;;;1.40;99.90;;;;;;8420684;28;19939;-73
2023/12/07 11:14:45;;;;;;;;;;;1.50;99.90;;;;;;8433588;28;20059;-73
2023/12/07 11:18:47;;;;;;;;;;;1.50;99.90;;;;;;8434447;28;20371;-73
2023/12/07 11:22:49;;;;;;;;;;;1.60;99.90;;;;;;8436065;28;19924;-72
2023/12/07 11:26:51;;;;;;;;;;;1.60;99.90;;;;;;8445719;28;19932;-72
2023/12/07 11:30:54;;;;;;;;;;;1.60;99.90;;;;;;8438647;28;19924;-72
2023/12/07 11:35:01;;;;;;;;;;;1.70;99.90;;;;;;8430012;28;19966;-73
2023/12/07 11:39:12;;;;;;;;;;;1.70;99.90;;;;;;8433527;28;19931;-73
2023/12/07 11:43:36;;;;;;;;;;;1.70;99.90;;;;;;8429851;28;20315;-73
2023/12/07 11:47:37;;;;;;;;;;;1.70;99.90;;;;;;8433944;28;19932;-73
2023/12/07 11:51:39;;;;;;;;;;;1.70;99.90;;;;;;8424479;28;19924;-72
2023/12/07 11:55:41;;;;;;;;;;;1.70;99.90;;;;;;8424585;28;19924;-72
2023/12/07 11:59:47;;;;;;;;;;;1.70;99.90;;;;;;8428188;28;20446;-73
2023/12/07 12:03:49;;;;;;;;;;;1.80;99.90;;;;;;8441499;28;19927;-73
2023/12/07 12:07:51;;;;;;;;;;;1.80;99.90;;;;;;8435614;28;20372;-73
2023/12/07 12:11:53;;;;;;;;;;;1.90;99.90;;;;;;8439093;28;19946;-73
2023/12/07 12:15:55;;;;;;;;;;;1.90;99.90;;;;;;8420005;28;19928;-73
2023/12/07 12:19:57;;;;;;;;;;;2.00;99.90;;;;;;8425831;28;20358;-73
2023/12/07 12:23:59;;;;;;;;;;;2.00;99.90;;;;;;8422469;28;19924;-73
2023/12/07 12:28:03;;;;;;;;;;;2.10;99.90;;;;;;8424653;28;19928;-73
2023/12/07 12:32:08;;;;;;;;;;;2.10;99.90;;;;;;8435101;28;19925;-73
2023/12/07 12:36:13;;;;;;;;;;;2.20;99.90;;;;;;8436950;28;19932;-73
2023/12/07 12:40:19;;;;;;;;;;;2.20;99.90;;;;;;8439752;28;19969;-73
2023/12/07 12:44:21;;;;;;;;;;;2.30;99.90;;;;;;8436885;28;20291;-73
2023/12/07 12:48:32;;;;;;;;;;;2.30;99.90;;;;;;8436537;28;19947;-73
2023/12/07 12:52:34;;;;;;;;;;;2.40;99.90;;;;;;8432257;28;19934;-73
2023/12/07 12:56:36;;;;;;;;;;;2.40;99.90;;;;;;8430343;28;19935;-72
2023/12/07 13:00:38;;;;;;;;;;;2.50;99.90;;;;;;8421052;28;19934;-73
2023/12/07 13:04:40;;;;;;;;;;;2.60;99.90;;;;;;8425137;28;19931;-73
2023/12/07 13:08:43;;;;;;;;;;;2.60;99.90;;;;;;8453500;27;19924;-73
2023/12/07 13:12:45;;;;;;;;;;;2.70;99.90;;;;;;8434601;28;19924;-73
2023/12/07 13:16:46;;;;;;;;;;;2.80;99.90;;;;;;8418671;28;19928;-73
2023/12/07 13:20:48;;;;;;;;;;;2.90;99.90;;;;;;8422782;28;19931;-73
2023/12/07 13:24:56;;;;;;;;;;;2.90;99.90;;;;;;8424138;28;19924;-73
2023/12/07 13:28:57;;;;;;;;;;;3.00;99.90;;;;;;8442132;28;19924;-73
2023/12/07 13:32:59;;;;;;;;;;;3.00;99.90;;;;;;8437686;28;19923;-73
2023/12/07 13:37:05;;;;;;;;;;;3.00;99.90;;;;;;8436939;28;19970;-73
2023/12/07 13:41:07;;;;;;;;;;;3.00;99.90;;;;;;8451819;28;19930;-73
2023/12/07 13:45:09;;;;;;;;;;;3.00;99.90;;;;;;8446425;28;20359;-73
2023/12/07 13:49:11;;;;;;;;;;;3.10;99.90;;;;;;8439837;28;20391;-73
2023/12/07 13:53:19;;;;;;;;;;;3.00;99.90;;;;;;8451054;28;19923;-73
2023/12/07 13:57:24;;;;;;;;;;;3.10;99.90;;;;;;8438834;28;19923;-72
2023/12/07 14:01:26;;;;;;;;;;;3.10;99.90;;;;;;8429524;28;19924;-73
2023/12/07 14:05:28;;;;;;;;;;;3.10;99.90;;;;;;8427997;28;19924;-73
2023/12/07 14:09:30;;;;;;;;;;;3.00;99.90;;;;;;8406658;28;19935;-73
2023/12/07 14:13:31;;;;;;;;;;;3.10;99.90;;;;;;8421116;28;19972;-73
2023/12/07 14:17:37;;;;;;;;;;;3.10;99.90;;;;;;8423708;28;19935;-73
2023/12/07 14:21:47;;;;;;;;;;;3.10;99.90;;;;;;8420794;28;20265;-74
2023/12/07 14:25:58;;;;;;;;;;;3.10;99.90;;;;;;8416271;28;20351;-73
2023/12/07 14:30:01;;;;;;;;;;;3.20;99.90;;;;;;8425845;28;20019;-73
2023/12/07 14:34:03;;;;;;;;;;;3.20;99.90;;;;;;8411990;28;19931;-73
2023/12/07 14:38:05;;;;;;;;;;;3.20;99.90;;;;;;8425285;28;20334;-73
2023/12/07 14:42:06;;;;;;;;;;;3.20;99.90;;;;;;8417607;28;20371;-73
2023/12/07 14:46:08;;;;;;;;;;;3.20;99.90;;;;;;8436601;28;19923;-73
2023/12/07 14:50:10;;;;;;;;;;;3.10;99.90;;;;;;8444867;28;20157;-73
2023/12/07 14:54:11;;;;;;;;;;;3.10;99.90;;;;;;8433692;28;19977;-73
2023/12/07 14:58:18;;;;;;;;;;;3.00;99.90;;;;;;8446230;28;19934;-72
2023/12/07 15:02:21;;;;;;;;;;;2.90;99.90;;;;;;8434014;28;20215;-72
2023/12/07 15:06:24;;;;;;;;;;;2.80;99.90;;;;;;8441263;28;20084;-73
2023/12/07 15:10:27;;;;;;;;;;;2.70;99.90;;;;;;8438322;28;19928;-73
2023/12/07 15:14:29;;;;;;;;;;;2.70;99.90;;;;;;8423790;28;20224;-73
2023/12/07 15:18:38;;;;;;;;;;;2.60;99.90;;;;;;8423028;28;19936;-72
2023/12/07 15:22:41;;;;;;;;;;;2.50;99.90;;;;;;8437138;28;20046;-73
2023/12/07 15:26:43;;;;;;;;;;;2.50;99.90;;;;;;8417289;28;19946;-73
2023/12/07 15:30:45;;;;;;;;;;;2.40;99.90;;;;;;8436903;28;20313;-72
2023/12/07 15:34:47;;;;;;;;;;;2.30;99.90;;;;;;8439239;28;19924;-72
2023/12/07 15:38:49;;;;;;;;;;;2.30;99.90;;;;;;8440022;28;19953;-73
2023/12/07 15:42:51;;;;;;;;;;;2.20;99.90;;;;;;8436323;28;19934;-73
2023/12/07 15:46:52;;;;;;;;;;;2.20;99.90;;;;;;8437281;28;19924;-73
2023/12/07 15:50:54;;;;;;;;;;;2.20;99.90;;;;;;8433659;28;19936;-72
2023/12/07 15:54:56;;;;;;;;;;;2.10;99.90;;;;;;8434799;28;19924;-73
2023/12/07 15:58:57;;;;;;;;;;;2.10;99.90;;;;;;8424595;28;20283;-72
2023/12/07 16:02:59;;;;;;;;;;;2.10;99.90;;;;;;8435726;28;20030;-72
2023/12/07 16:07:03;;;;;;;;;;;2.10;99.90;;;;;;8432497;28;20361;-72
2023/12/07 16:11:06;;;;;;;;;;;2.10;99.90;;;;;;8428822;28;19935;-73
2023/12/07 16:15:07;;;;;;;;;;;2.10;99.90;;;;;;8431814;28;19964;-72
2023/12/07 16:19:09;;;;;;;;;;;2.10;99.90;;;;;;8436046;28;19932;-72
2023/12/07 16:23:11;;;;;;;;;;;2.10;99.90;;;;;;8442800;28;19972;-72
2023/12/07 16:27:13;;;;;;;;;;;2.10;99.90;;;;;;8432909;28;19943;-73
2023/12/07 16:31:15;;;;;;;;;;;2.10;99.90;;;;;;8430310;28;20393;-72
2023/12/07 16:35:17;;;;;;;;;;;2.20;99.90;;;;;;8426168;28;20349;-73
2023/12/07 16:39:18;;;;;;;;;;;2.20;99.90;;;;;;8428289;28;19932;-72
2023/12/07 16:43:20;;;;;;;;;;;2.20;99.90;;;;;;8385987;28;19955;-73
2023/12/07 16:47:22;;;;;;;;;;;2.20;99.90;;;;;;8390167;28;19925;-73
2023/12/07 16:51:24;;;;;;;;;;;2.20;99.90;;;;;;8384747;28;19932;-72
2023/12/07 16:55:26;;;;;;;;;;;2.20;99.90;;;;;;8391681;28;19971;-73
2023/12/07 16:59:28;;;;;;;;;;;2.20;99.90;;;;;;8393084;28;19932;-73
2023/12/07 17:03:31;;;;;;;;;;;2.20;99.90;;;;;;8393952;28;20696;-73
2023/12/07 17:07:33;;;;;;;;;;;2.30;99.90;;;;;;8400488;28;19979;-72
2023/12/07 17:11:34;;;;;;;;;;;2.30;99.90;;;;;;8394597;28;19932;-73
2023/12/07 17:15:36;;;;;;;;;;;2.30;99.90;;;;;;8400038;28;19931;-73
2023/12/07 17:19:38;;;;;;;;;;;2.30;99.90;;;;;;8398274;28;19924;-72
2023/12/07 17:23:46;;;;;;;;;;;2.30;99.90;;;;;;8396123;28;19924;-73
2023/12/07 17:38:07;;;;;;;;;;;2.40;99.90;;;;;;8387953;28;20005;-73
2023/12/07 17:42:09;;;;;;;;;;;2.50;99.90;;;;;;8396980;28;19966;-73
2023/12/07 17:46:11;;;;;;;;;;;2.50;99.90;;;;;;8400732;28;19925;-73
2023/12/07 17:50:12;;;;;;;;;;;2.50;99.90;;;;;;8401445;28;19932;-72
2023/12/07 17:54:14;;;;;;;;;;;2.50;99.90;;;;;;8398371;28;20345;-73
2023/12/07 17:58:17;;;;;;;;;;;2.50;99.90;;;;;;8400221;28;19928;-74
2023/12/07 18:02:18;;;;;;;;;;;2.60;99.90;;;;;;8393641;28;19924;-72
2023/12/07 18:06:20;;;;;;;;;;;2.60;99.90;;;;;;8395142;28;20005;-72
2023/12/07 18:10:23;;;;;;;;;;;2.60;99.90;;;;;;8403124;28;19935;-73
2023/12/07 18:14:25;;;;;;;;;;;2.60;99.90;;;;;;8399151;28;20360;-74
2023/12/07 18:18:27;;;;;;;;;;;2.60;99.90;;;;;;8402367;28;19974;-73
2023/12/07 18:22:29;;;;;;;;;;;2.60;99.90;;;;;;8396535;28;19932;-73
2023/12/07 18:26:34;;;;;;;;;;;2.60;99.90;;;;;;8397602;28;20317;-73
2023/12/07 18:30:38;;;;;;;;;;;2.60;99.90;;;;;;8434085;27;19928;-72
2023/12/07 18:34:40;;;;;;;;;;;2.60;99.90;;;;;;8405417;28;20486;-72
2023/12/07 18:38:42;;;;;;;;;;;2.60;99.90;;;;;;8394240;28;19933;-72
2023/12/07 18:42:43;;;;;;;;;;;2.60;99.90;;;;;;8392313;28;19956;-72
2023/12/07 18:46:45;;;;;;;;;;;2.60;99.90;;;;;;8389602;28;19924;-73
2023/12/07 18:50:47;;;;;;;;;;;2.60;99.90;;;;;;8391129;28;19936;-72
2023/12/07 18:54:49;;;;;;;;;;;2.60;99.90;;;;;;8394815;28;19928;-73
2023/12/07 18:58:50;;;;;;;;;;;2.60;99.90;;;;;;8392346;28;19928;-72
2023/12/07 19:02:52;;;;;;;;;;;2.60;99.90;;;;;;8399936;28;20043;-73
2023/12/07 19:06:57;;;;;;;;;;;2.50;99.90;;;;;;8395236;28;19932;-73
2023/12/07 19:11:00;;;;;;;;;;;2.60;99.90;;;;;;8426760;27;19943;-72
2023/12/07 19:15:03;;;;;;;;;;;2.50;99.90;;;;;;8386692;28;19936;-73
2023/12/07 19:19:05;;;;;;;;;;;2.60;99.90;;;;;;8395043;28;19938;-74
2023/12/07 19:23:07;;;;;;;;;;;2.60;99.90;;;;;;8390434;28;19928;-72
2023/12/07 19:27:08;;;;;;;;;;;2.60;99.90;;;;;;8385558;28;20545;-72
2023/12/07 19:31:10;;;;;;;;;;;2.60;99.90;;;;;;8392464;28;19939;-72
2023/12/07 19:35:12;;;;;;;;;;;2.60;99.90;;;;;;8391634;28;19990;-73
2023/12/07 19:39:15;;;;;;;;;;;2.60;99.90;;;;;;8392238;28;19928;-72
2023/12/07 19:43:17;;;;;;;;;;;2.60;99.90;;;;;;8402636;28;19928;-73
2023/12/07 19:47:19;;;;;;;;;;;2.70;99.90;;;;;;8406775;28;19928;-73
2023/12/07 19:51:21;;;;;;;;;;;2.70;99.90;;;;;;8409505;28;19998;-72
2023/12/07 19:55:22;;;;;;;;;;;2.70;99.90;;;;;;8395347;28;19940;-72
2023/12/07 20:04:27;;;;;;;;;;;2.80;99.90;;;;;;8397837;28;20332;-72
2023/12/07 20:08:29;;;;;;;;;;;2.80;99.90;;;;;;8430359;27;19962;-73
2023/12/07 20:12:31;;;;;;;;;;;2.80;99.90;;;;;;8391190;28;19993;-72
2023/12/07 20:16:33;;;;;;;;;;;2.80;99.90;;;;;;8398475;28;20505;-72
2023/12/07 20:20:34;;;;;;;;;;;2.90;99.90;;;;;;8388905;28;19929;-72
2023/12/07 20:24:37;;;;;;;;;;;2.90;99.90;;;;;;8387351;28;21450;-73
2023/12/07 20:28:39;;;;;;;;;;;2.90;99.90;;;;;;8397857;28;20360;-73
2023/12/07 20:32:40;;;;;;;;;;;2.90;99.90;;;;;;8395132;28;19924;-73
2023/12/07 20:36:42;;;;;;;;;;;2.90;99.90;;;;;;8396619;28;24317;-73
2023/12/07 20:40:44;;;;;;;;;;;2.90;99.90;;;;;;8396779;28;19928;-73
2023/12/07 20:44:46;;;;;;;;;;;2.90;99.90;;;;;;8398307;28;19924;-73
2023/12/07 20:48:47;;;;;;;;;;;2.90;99.90;;;;;;8407762;28;19932;-72
2023/12/07 20:52:49;;;;;;;;;;;2.90;99.90;;;;;;8397912;28;19928;-72
2023/12/07 20:56:51;;;;;;;;;;;2.90;99.90;;;;;;8405439;28;19928;-72
2023/12/07 21:00:52;;;;;;;;;;;2.90;99.90;;;;;;8407032;28;20324;-72
2023/12/07 21:04:54;;;;;;;;;;;2.90;99.90;;;;;;8396104;28;19924;-72
2023/12/07 21:08:56;;;;;;;;;;;2.90;99.90;;;;;;8401708;28;19982;-73
2023/12/07 21:12:58;;;;;;;;;;;2.90;99.90;;;;;;8399947;28;20023;-72
2023/12/07 21:16:59;;;;;;;;;;;2.90;99.90;;;;;;8394934;28;19985;-72
2023/12/07 21:21:01;;;;;;;;;;;2.90;99.90;;;;;;8396829;28;19939;-72
2023/12/07 21:25:03;;;;;;;;;;;3.00;99.90;;;;;;8397125;28;20387;-72
2023/12/07 21:34:08;;;;;;;;;;;3.00;99.90;;;;;;8395160;28;20011;-73
2023/12/07 21:43:20;;;;;;;;;;;3.00;99.90;;;;;;8397661;28;19966;-73
2023/12/07 21:47:22;;;;;;;;;;;3.00;99.90;;;;;;8393140;28;19929;-73
2023/12/07 21:51:24;;;;;;;;;;;3.00;99.90;;;;;;8393071;28;19959;-73
2023/12/07 21:55:26;;;;;;;;;;;3.00;99.90;;;;;;8426777;27;19960;-73
2023/12/07 21:59:27;;;;;;;;;;;3.00;99.90;;;;;;8394197;28;19932;-72
2023/12/07 22:03:29;;;;;;;;;;;3.00;99.90;;;;;;8419436;28;19928;-73
2023/12/07 22:07:31;;;;;;;;;;;3.10;99.90;;;;;;8423293;28;19935;-72
2023/12/07 22:11:32;;;;;;;;;;;3.10;99.90;;;;;;8434062;28;19932;-73
2023/12/07 22:15:34;;;;;;;;;;;3.10;99.90;;;;;;8426181;28;19986;-73
2023/12/07 22:19:36;;;;;;;;;;;3.10;99.90;;;;;;8425284;28;19925;-72
2023/12/07 22:23:38;;;;;;;;;;;3.10;99.90;;;;;;8422747;28;20371;-73
2023/12/07 22:27:40;;;;;;;;;;;3.10;99.90;;;;;;8420138;28;19928;-72
2023/12/07 22:31:45;;;;;;;;;;;3.10;99.90;;;;;;8422142;28;19924;-72
2023/12/07 22:35:47;;;;;;;;;;;3.10;99.90;;;;;;8423544;28;20375;-72
2023/12/07 22:39:48;;;;;;;;;;;3.10;99.90;;;;;;8427841;28;19932;-72
2023/12/07 22:43:50;;;;;;;;;;;3.10;99.90;;;;;;8425630;28;20333;-73
2023/12/07 22:47:52;;;;;;;;;;;3.10;99.90;;;;;;8427240;28;19967;-72
2023/12/07 22:51:53;;;;;;;;;;;3.10;99.90;;;;;;8430576;28;20272;-72
2023/12/07 22:55:55;;;;;;;;;;;3.10;99.90;;;;;;8422668;28;19928;-72
2023/12/07 22:59:57;;;;;;;;;;;3.10;99.90;;;;;;8426308;28;20378;-72
2023/12/07 23:03:59;;;;;;;;;;;3.10;99.90;;;;;;8425773;28;20058;-72
2023/12/07 23:08:02;;;;;;;;;;;3.20;99.90;;;;;;8423412;28;19977;-72
2023/12/07 23:12:04;;;;;;;;;;;3.20;99.90;;;;;;8418193;28;19924;-72
2023/12/07 23:16:06;;;;;;;;;;;3.20;99.90;;;;;;8424676;28;19924;-73
2023/12/07 23:20:08;;;;;;;;;;;3.20;99.90;;;;;;8421814;28;19924;-73
2023/12/07 23:24:10;;;;;;;;;;;3.20;99.90;;;;;;8421799;28;19924;-72
2023/12/07 23:28:11;;;;;;;;;;;3.20;99.90;;;;;;8429440;28;19924;-73
2023/12/07 23:32:13;;;;;;;;;;;3.20;99.90;;;;;;8417216;28;19924;-72
2023/12/07 23:36:15;;;;;;;;;;;3.20;99.90;;;;;;8425742;28;19932;-72
2023/12/07 23:40:17;;;;;;;;;;;3.20;99.90;;;;;;8421467;28;19985;-73
2023/12/07 23:44:19;;;;;;;;;;;3.20;99.90;;;;;;8422461;28;19994;-73
2023/12/07 23:48:20;;;;;;;;;;;3.20;99.90;;;;;;8423042;28;19924;-72
2023/12/07 23:52:22;;;;;;;;;;;3.20;99.90;;;;;;8443214;27;20394;-73
2023/12/07 23:56:24;;;;;;;;;;;3.20;99.90;;;;;;8424207;28;19928;-73
